LIRA

Ciampino–G. B. Pastine International Airport

Roma, Italy
TAF LIRA 171700Z 1718/1818 04006KT 9999 FEW040
Issued Valid From Valid To
Nov-17 @ 17:00 UTC
(5 hours ago)
Nov-17 @ 18:00 UTC
(4 hours ago)
Nov-18 @ 18:00 UTC
(in 20 hours)
Nov-17 @ 18:00 to Nov-18 @ 18:00
TAF LIRA 171700Z 1718/1818 04006KT 9999 FEW040
Wind Visibility Clouds
40° at 6 knots 10,000+ meters
  • Few at 4,000' AGL
TAF LIRA 171700Z 1718/1818 04006KT 9999 FEW040
Issued Nov-17 @ 17:00 UTC
(5 hours ago)
Valid From Nov-17 @ 18:00 UTC
(4 hours ago)
Valid To Nov-18 @ 18:00 UTC
(in 20 hours)
Nov-17 @ 18:00 - Nov-18 @ 18:00
Wind Visibility
40° at 6 knots 10,000+ meters
Clouds
  • Few at 4,000' AGL